sensor_id;sensor_type;location;lat;lon;timestamp;temperature;humidity
74923;HTU21D;64715;44.760;37.678;2023-04-24T00:00:12;10.51;74.89
74923;HTU21D;64715;44.760;37.678;2023-04-24T00:01:16;10.49;74.61
74923;HTU21D;64715;44.760;37.678;2023-04-24T00:02:17;10.50;74.64
74923;HTU21D;64715;44.760;37.678;2023-04-24T00:03:19;10.48;74.54
74923;HTU21D;64715;44.760;37.678;2023-04-24T00:04:21;10.48;74.46
74923;HTU21D;64715;44.760;37.678;2023-04-24T00:05:23;10.45;74.37
74923;HTU21D;64715;44.760;37.678;2023-04-24T00:06:24;10.45;74.39
74923;HTU21D;64715;44.760;37.678;2023-04-24T00:07:25;10.44;74.09
74923;HTU21D;64715;44.760;37.678;2023-04-24T00:08:26;10.46;74.15
74923;HTU21D;64715;44.760;37.678;2023-04-24T00:09:27;10.44;74.24
74923;HTU21D;64715;44.760;37.678;2023-04-24T00:10:28;10.42;74.05
74923;HTU21D;64715;44.760;37.678;2023-04-24T00:11:29;10.41;74.15
74923;HTU21D;64715;44.760;37.678;2023-04-24T00:12:30;10.41;73.93
74923;HTU21D;64715;44.760;37.678;2023-04-24T00:13:31;10.39;73.80
74923;HTU21D;64715;44.760;37.678;2023-04-24T00:14:33;10.38;73.94
74923;HTU21D;64715;44.760;37.678;2023-04-24T00:15:35;10.38;73.70
74923;HTU21D;64715;44.760;37.678;2023-04-24T00:16:36;10.35;73.64
74923;HTU21D;64715;44.760;37.678;2023-04-24T00:17:38;10.33;73.73
74923;HTU21D;64715;44.760;37.678;2023-04-24T00:18:39;10.34;73.88
74923;HTU21D;64715;44.760;37.678;2023-04-24T00:19:40;10.31;73.61
74923;HTU21D;64715;44.760;37.678;2023-04-24T00:20:42;10.30;73.80
74923;HTU21D;64715;44.760;37.678;2023-04-24T00:21:44;10.29;73.83
74923;HTU21D;64715;44.760;37.678;2023-04-24T00:22:45;10.26;73.68
74923;HTU21D;64715;44.760;37.678;2023-04-24T00:23:47;10.26;73.68
74923;HTU21D;64715;44.760;37.678;2023-04-24T00:24:48;10.26;74.06
74923;HTU21D;64715;44.760;37.678;2023-04-24T00:25:49;10.25;74.01
74923;HTU21D;64715;44.760;37.678;2023-04-24T00:26:50;10.24;73.70
74923;HTU21D;64715;44.760;37.678;2023-04-24T00:27:51;10.25;73.75
74923;HTU21D;64715;44.760;37.678;2023-04-24T00:28:52;10.26;73.83
74923;HTU21D;64715;44.760;37.678;2023-04-24T00:29:53;10.25;73.95
74923;HTU21D;64715;44.760;37.678;2023-04-24T00:30:54;10.24;73.69
74923;HTU21D;64715;44.760;37.678;2023-04-24T00:31:55;10.22;73.71
74923;HTU21D;64715;44.760;37.678;2023-04-24T00:32:56;10.23;73.82
74923;HTU21D;64715;44.760;37.678;2023-04-24T00:33:58;10.22;73.73
74923;HTU21D;64715;44.760;37.678;2023-04-24T00:34:59;10.21;73.90
74923;HTU21D;64715;44.760;37.678;2023-04-24T00:36:01;10.20;73.86
74923;HTU21D;64715;44.760;37.678;2023-04-24T00:37:02;10.20;73.66
74923;HTU21D;64715;44.760;37.678;2023-04-24T00:38:03;10.18;73.77
74923;HTU21D;64715;44.760;37.678;2023-04-24T00:39:04;10.18;73.64
74923;HTU21D;64715;44.760;37.678;2023-04-24T00:40:06;10.14;73.69
74923;HTU21D;64715;44.760;37.678;2023-04-24T00:41:07;10.15;73.49
74923;HTU21D;64715;44.760;37.678;2023-04-24T00:42:09;10.15;73.91
74923;HTU21D;64715;44.760;37.678;2023-04-24T00:43:10;10.16;73.93
74923;HTU21D;64715;44.760;37.678;2023-04-24T00:44:11;10.18;73.94
74923;HTU21D;64715;44.760;37.678;2023-04-24T00:45:12;10.15;73.68
74923;HTU21D;64715;44.760;37.678;2023-04-24T00:46:13;10.15;73.93
74923;HTU21D;64715;44.760;37.678;2023-04-24T00:47:15;10.15;73.86
74923;HTU21D;64715;44.760;37.678;2023-04-24T00:48:16;10.13;73.77
74923;HTU21D;64715;44.760;37.678;2023-04-24T00:49:21;10.14;73.97
74923;HTU21D;64715;44.760;37.678;2023-04-24T00:50:23;10.13;73.90
74923;HTU21D;64715;44.760;37.678;2023-04-24T00:51:25;10.13;74.07
74923;HTU21D;64715;44.760;37.678;2023-04-24T00:52:28;10.13;73.87
74923;HTU21D;64715;44.760;37.678;2023-04-24T00:53:28;10.15;73.90
74923;HTU21D;64715;44.760;37.678;2023-04-24T00:54:30;10.15;73.86
74923;HTU21D;64715;44.760;37.678;2023-04-24T00:55:31;10.13;74.06
74923;HTU21D;64715;44.760;37.678;2023-04-24T00:56:32;10.15;74.15
74923;HTU21D;64715;44.760;37.678;2023-04-24T00:57:35;10.18;74.14
74923;HTU21D;64715;44.760;37.678;2023-04-24T00:58:36;10.18;73.89
74923;HTU21D;64715;44.760;37.678;2023-04-24T00:59:37;10.18;74.04
74923;HTU21D;64715;44.760;37.678;2023-04-24T01:00:40;10.21;74.04
74923;HTU21D;64715;44.760;37.678;2023-04-24T01:01:41;10.20;74.39
74923;HTU21D;64715;44.760;37.678;2023-04-24T01:02:44;10.22;74.06
74923;HTU21D;64715;44.760;37.678;2023-04-24T01:03:46;10.21;74.02
74923;HTU21D;64715;44.760;37.678;2023-04-24T01:04:47;10.22;74.13
74923;HTU21D;64715;44.760;37.678;2023-04-24T01:05:49;10.22;74.03
74923;HTU21D;64715;44.760;37.678;2023-04-24T01:06:50;10.24;74.12
74923;HTU21D;64715;44.760;37.678;2023-04-24T01:07:51;10.25;74.22
74923;HTU21D;64715;44.760;37.678;2023-04-24T01:08:52;10.24;73.96
74923;HTU21D;64715;44.760;37.678;2023-04-24T01:09:55;10.24;73.91
74923;HTU21D;64715;44.760;37.678;2023-04-24T01:10:57;10.25;74.02
74923;HTU21D;64715;44.760;37.678;2023-04-24T01:11:58;10.26;73.86
74923;HTU21D;64715;44.760;37.678;2023-04-24T01:12:59;10.24;74.07
74923;HTU21D;64715;44.760;37.678;2023-04-24T01:14:01;10.23;74.04
74923;HTU21D;64715;44.760;37.678;2023-04-24T01:15:03;10.23;73.79
74923;HTU21D;64715;44.760;37.678;2023-04-24T01:16:05;10.23;73.87
74923;HTU21D;64715;44.760;37.678;2023-04-24T01:17:06;10.24;74.14
74923;HTU21D;64715;44.760;37.678;2023-04-24T01:18:07;10.24;73.99
74923;HTU21D;64715;44.760;37.678;2023-04-24T01:19:10;10.24;73.83
74923;HTU21D;64715;44.760;37.678;2023-04-24T01:20:12;10.25;73.66
74923;HTU21D;64715;44.760;37.678;2023-04-24T01:21:15;10.27;73.86
74923;HTU21D;64715;44.760;37.678;2023-04-24T01:22:19;10.28;73.77
74923;HTU21D;64715;44.760;37.678;2023-04-24T01:23:21;10.27;73.86
74923;HTU21D;64715;44.760;37.678;2023-04-24T01:24:22;10.28;73.65
74923;HTU21D;64715;44.760;37.678;2023-04-24T01:25:25;10.31;74.15
74923;HTU21D;64715;44.760;37.678;2023-04-24T01:26:28;10.30;73.99
74923;HTU21D;64715;44.760;37.678;2023-04-24T01:27:29;10.31;74.22
74923;HTU21D;64715;44.760;37.678;2023-04-24T01:28:30;10.33;74.02
74923;HTU21D;64715;44.760;37.678;2023-04-24T01:29:32;10.34;73.86
74923;HTU21D;64715;44.760;37.678;2023-04-24T01:30:33;10.36;74.11
74923;HTU21D;64715;44.760;37.678;2023-04-24T01:31:34;10.40;73.86
74923;HTU21D;64715;44.760;37.678;2023-04-24T01:32:37;10.38;73.93
74923;HTU21D;64715;44.760;37.678;2023-04-24T01:33:38;10.40;73.66
74923;HTU21D;64715;44.760;37.678;2023-04-24T01:34:40;10.39;73.72
74923;HTU21D;64715;44.760;37.678;2023-04-24T01:35:41;10.38;73.73
74923;HTU21D;64715;44.760;37.678;2023-04-24T01:36:43;10.39;73.93
74923;HTU21D;64715;44.760;37.678;2023-04-24T01:37:46;10.39;73.80
74923;HTU21D;64715;44.760;37.678;2023-04-24T01:38:47;10.41;73.73
74923;HTU21D;64715;44.760;37.678;2023-04-24T01:39:48;10.42;73.48
74923;HTU21D;64715;44.760;37.678;2023-04-24T01:40:50;10.43;73.48
74923;HTU21D;64715;44.760;37.678;2023-04-24T01:41:52;10.42;73.36
74923;HTU21D;64715;44.760;37.678;2023-04-24T01:42:54;10.43;73.73
74923;HTU21D;64715;44.760;37.678;2023-04-24T01:43:55;10.44;73.39
74923;HTU21D;64715;44.760;37.678;2023-04-24T01:44:57;10.44;73.32
74923;HTU21D;64715;44.760;37.678;2023-04-24T01:45:59;10.45;73.39
74923;HTU21D;64715;44.760;37.678;2023-04-24T01:47:00;10.49;73.49
74923;HTU21D;64715;44.760;37.678;2023-04-24T01:48:01;10.46;73.30
74923;HTU21D;64715;44.760;37.678;2023-04-24T01:49:03;10.49;73.30
74923;HTU21D;64715;44.760;37.678;2023-04-24T01:50:05;10.45;73.13
74923;HTU21D;64715;44.760;37.678;2023-04-24T01:51:06;10.46;73.47
74923;HTU21D;64715;44.760;37.678;2023-04-24T01:52:07;10.46;73.32
74923;HTU21D;64715;44.760;37.678;2023-04-24T01:53:08;10.44;73.28
74923;HTU21D;64715;44.760;37.678;2023-04-24T01:54:10;10.46;73.26
74923;HTU21D;64715;44.760;37.678;2023-04-24T01:55:11;10.48;73.17
74923;HTU21D;64715;44.760;37.678;2023-04-24T01:56:12;10.48;73.51
74923;HTU21D;64715;44.760;37.678;2023-04-24T01:57:14;10.48;73.31
74923;HTU21D;64715;44.760;37.678;2023-04-24T01:58:16;10.52;73.39
74923;HTU21D;64715;44.760;37.678;2023-04-24T01:59:17;10.53;73.44
74923;HTU21D;64715;44.760;37.678;2023-04-24T02:00:21;10.53;73.35
74923;HTU21D;64715;44.760;37.678;2023-04-24T02:01:23;10.56;73.40
74923;HTU21D;64715;44.760;37.678;2023-04-24T02:02:25;10.56;73.38
74923;HTU21D;64715;44.760;37.678;2023-04-24T02:03:27;10.57;73.35
74923;HTU21D;64715;44.760;37.678;2023-04-24T02:04:32;10.57;73.45
74923;HTU21D;64715;44.760;37.678;2023-04-24T02:05:33;10.57;73.35
74923;HTU21D;64715;44.760;37.678;2023-04-24T02:06:34;10.58;73.46
74923;HTU21D;64715;44.760;37.678;2023-04-24T02:07:36;10.62;73.45
74923;HTU21D;64715;44.760;37.678;2023-04-24T02:08:37;10.58;73.35
74923;HTU21D;64715;44.760;37.678;2023-04-24T02:09:38;10.58;73.35
74923;HTU21D;64715;44.760;37.678;2023-04-24T02:10:40;10.60;73.35
74923;HTU21D;64715;44.760;37.678;2023-04-24T02:11:40;10.58;73.38
74923;HTU21D;64715;44.760;37.678;2023-04-24T02:12:41;10.58;73.35
74923;HTU21D;64715;44.760;37.678;2023-04-24T02:13:42;10.57;73.30
74923;HTU21D;64715;44.760;37.678;2023-04-24T02:14:44;10.57;73.37
74923;HTU21D;64715;44.760;37.678;2023-04-24T02:15:45;10.56;73.38
74923;HTU21D;64715;44.760;37.678;2023-04-24T02:16:47;10.58;73.41
74923;HTU21D;64715;44.760;37.678;2023-04-24T02:17:47;10.57;73.64
74923;HTU21D;64715;44.760;37.678;2023-04-24T02:18:49;10.57;73.44
74923;HTU21D;64715;44.760;37.678;2023-04-24T02:19:51;10.57;73.52
74923;HTU21D;64715;44.760;37.678;2023-04-24T02:20:53;10.58;73.28
74923;HTU21D;64715;44.760;37.678;2023-04-24T02:21:54;10.56;73.52
74923;HTU21D;64715;44.760;37.678;2023-04-24T02:22:55;10.57;73.57
74923;HTU21D;64715;44.760;37.678;2023-04-24T02:23:57;10.54;73.55
74923;HTU21D;64715;44.760;37.678;2023-04-24T02:24:58;10.55;73.42
74923;HTU21D;64715;44.760;37.678;2023-04-24T02:26:00;10.52;73.44
74923;HTU21D;64715;44.760;37.678;2023-04-24T02:27:01;10.53;73.60
74923;HTU21D;64715;44.760;37.678;2023-04-24T02:28:03;10.53;73.78
74923;HTU21D;64715;44.760;37.678;2023-04-24T02:29:04;10.52;73.84
74923;HTU21D;64715;44.760;37.678;2023-04-24T02:30:06;10.51;73.88
74923;HTU21D;64715;44.760;37.678;2023-04-24T02:31:08;10.52;73.90
74923;HTU21D;64715;44.760;37.678;2023-04-24T02:32:09;10.53;73.93
74923;HTU21D;64715;44.760;37.678;2023-04-24T02:33:12;10.57;73.88
74923;HTU21D;64715;44.760;37.678;2023-04-24T02:34:14;10.56;73.82
74923;HTU21D;64715;44.760;37.678;2023-04-24T02:35:15;10.55;73.68
74923;HTU21D;64715;44.760;37.678;2023-04-24T02:36:16;10.56;73.98
74923;HTU21D;64715;44.760;37.678;2023-04-24T02:37:17;10.56;73.99
74923;HTU21D;64715;44.760;37.678;2023-04-24T02:38:19;10.56;74.09
74923;HTU21D;64715;44.760;37.678;2023-04-24T02:39:20;10.57;74.13
74923;HTU21D;64715;44.760;37.678;2023-04-24T02:40:21;10.59;74.02
74923;HTU21D;64715;44.760;37.678;2023-04-24T02:41:22;10.59;74.12
74923;HTU21D;64715;44.760;37.678;2023-04-24T02:42:22;10.60;74.38
74923;HTU21D;64715;44.760;37.678;2023-04-24T02:43:23;10.63;74.32
74923;HTU21D;64715;44.760;37.678;2023-04-24T02:44:25;10.63;74.47
74923;HTU21D;64715;44.760;37.678;2023-04-24T02:45:26;10.67;74.46
74923;HTU21D;64715;44.760;37.678;2023-04-24T02:46:28;10.67;74.09
74923;HTU21D;64715;44.760;37.678;2023-04-24T02:47:29;10.69;74.38
74923;HTU21D;64715;44.760;37.678;2023-04-24T02:48:31;10.71;74.31
74923;HTU21D;64715;44.760;37.678;2023-04-24T02:49:32;10.69;74.38
74923;HTU21D;64715;44.760;37.678;2023-04-24T02:50:33;10.69;74.64
74923;HTU21D;64715;44.760;37.678;2023-04-24T02:51:34;10.72;74.51
74923;HTU21D;64715;44.760;37.678;2023-04-24T02:52:38;10.77;74.73
74923;HTU21D;64715;44.760;37.678;2023-04-24T02:53:39;10.78;74.98
74923;HTU21D;64715;44.760;37.678;2023-04-24T02:54:40;10.83;74.59
74923;HTU21D;64715;44.760;37.678;2023-04-24T02:55:41;10.89;74.73
74923;HTU21D;64715;44.760;37.678;2023-04-24T02:56:42;10.88;74.80
74923;HTU21D;64715;44.760;37.678;2023-04-24T02:57:43;10.90;74.78
74923;HTU21D;64715;44.760;37.678;2023-04-24T02:58:44;10.93;74.69
74923;HTU21D;64715;44.760;37.678;2023-04-24T02:59:45;10.95;74.73
74923;HTU21D;64715;44.760;37.678;2023-04-24T03:00:47;10.98;74.53
74923;HTU21D;64715;44.760;37.678;2023-04-24T03:01:48;11.02;74.80
74923;HTU21D;64715;44.760;37.678;2023-04-24T03:02:49;11.05;74.89
74923;HTU21D;64715;44.760;37.678;2023-04-24T03:03:50;11.08;75.02
74923;HTU21D;64715;44.760;37.678;2023-04-24T03:04:51;11.13;74.73
74923;HTU21D;64715;44.760;37.678;2023-04-24T03:05:52;11.16;74.77
74923;HTU21D;64715;44.760;37.678;2023-04-24T03:06:53;11.20;75.03
74923;HTU21D;64715;44.760;37.678;2023-04-24T03:07:56;11.24;74.75
74923;HTU21D;64715;44.760;37.678;2023-04-24T03:08:57;11.25;74.51
74923;HTU21D;64715;44.760;37.678;2023-04-24T03:09:58;11.28;74.76
74923;HTU21D;64715;44.760;37.678;2023-04-24T03:10:59;11.30;74.70
74923;HTU21D;64715;44.760;37.678;2023-04-24T03:12:00;11.31;74.63
74923;HTU21D;64715;44.760;37.678;2023-04-24T03:13:01;11.31;74.61
74923;HTU21D;64715;44.760;37.678;2023-04-24T03:14:02;11.34;74.36
74923;HTU21D;64715;44.760;37.678;2023-04-24T03:15:03;11.34;74.35
74923;HTU21D;64715;44.760;37.678;2023-04-24T03:16:04;11.34;74.37
74923;HTU21D;64715;44.760;37.678;2023-04-24T03:17:07;11.36;74.61
74923;HTU21D;64715;44.760;37.678;2023-04-24T03:18:08;11.37;74.38
74923;HTU21D;64715;44.760;37.678;2023-04-24T03:19:09;11.39;74.15
74923;HTU21D;64715;44.760;37.678;2023-04-24T03:20:18;11.39;74.30
74923;HTU21D;64715;44.760;37.678;2023-04-24T03:21:19;11.41;74.41
74923;HTU21D;64715;44.760;37.678;2023-04-24T03:22:21;11.41;74.44
74923;HTU21D;64715;44.760;37.678;2023-04-24T03:23:22;11.43;74.13
74923;HTU21D;64715;44.760;37.678;2023-04-24T03:24:23;11.43;74.63
74923;HTU21D;64715;44.760;37.678;2023-04-24T03:25:24;11.46;74.44
74923;HTU21D;64715;44.760;37.678;2023-04-24T03:26:26;11.46;74.35
74923;HTU21D;64715;44.760;37.678;2023-04-24T03:27:43;11.51;74.26
74923;HTU21D;64715;44.760;37.678;2023-04-24T03:28:55;11.49;74.25
74923;HTU21D;64715;44.760;37.678;2023-04-24T03:29:57;11.49;74.21
74923;HTU21D;64715;44.760;37.678;2023-04-24T03:31:05;11.52;74.29
74923;HTU21D;64715;44.760;37.678;2023-04-24T03:32:09;11.53;74.35
74923;HTU21D;64715;44.760;37.678;2023-04-24T03:33:12;11.53;74.57
74923;HTU21D;64715;44.760;37.678;2023-04-24T03:34:21;11.56;74.43
74923;HTU21D;64715;44.760;37.678;2023-04-24T03:35:22;11.56;74.37
74923;HTU21D;64715;44.760;37.678;2023-04-24T03:36:24;11.55;74.69
74923;HTU21D;64715;44.760;37.678;2023-04-24T03:37:26;11.57;74.28
74923;HTU21D;64715;44.760;37.678;2023-04-24T03:38:38;11.57;74.63
74923;HTU21D;64715;44.760;37.678;2023-04-24T03:40:09;11.59;74.39
74923;HTU21D;64715;44.760;37.678;2023-04-24T03:41:11;11.60;74.41
74923;HTU21D;64715;44.760;37.678;2023-04-24T03:42:20;11.64;74.71
74923;HTU21D;64715;44.760;37.678;2023-04-24T03:43:29;11.68;74.69
74923;HTU21D;64715;44.760;37.678;2023-04-24T03:44:32;11.69;74.18
74923;HTU21D;64715;44.760;37.678;2023-04-24T03:45:34;11.75;74.54
74923;HTU21D;64715;44.760;37.678;2023-04-24T03:46:35;11.77;74.52
74923;HTU21D;64715;44.760;37.678;2023-04-24T03:47:36;11.83;74.34
74923;HTU21D;64715;44.760;37.678;2023-04-24T03:48:39;11.92;74.75
74923;HTU21D;64715;44.760;37.678;2023-04-24T03:49:42;12.04;74.82
74923;HTU21D;64715;44.760;37.678;2023-04-24T03:50:44;12.18;74.77
74923;HTU21D;64715;44.760;37.678;2023-04-24T03:51:46;12.34;74.73
74923;HTU21D;64715;44.760;37.678;2023-04-24T03:52:58;12.51;74.59
74923;HTU21D;64715;44.760;37.678;2023-04-24T03:54:09;12.67;74.25
74923;HTU21D;64715;44.760;37.678;2023-04-24T03:55:13;12.81;74.44
74923;HTU21D;64715;44.760;37.678;2023-04-24T03:56:18;12.95;73.77
74923;HTU21D;64715;44.760;37.678;2023-04-24T03:57:20;13.06;73.76
74923;HTU21D;64715;44.760;37.678;2023-04-24T03:58:34;13.18;73.57
74923;HTU21D;64715;44.760;37.678;2023-04-24T03:59:35;13.25;73.05
74923;HTU21D;64715;44.760;37.678;2023-04-24T04:00:51;13.32;72.97
74923;HTU21D;64715;44.760;37.678;2023-04-24T04:02:31;13.39;72.96
74923;HTU21D;64715;44.760;37.678;2023-04-24T04:03:32;13.40;72.60
74923;HTU21D;64715;44.760;37.678;2023-04-24T04:04:34;13.44;72.71
74923;HTU21D;64715;44.760;37.678;2023-04-24T04:05:35;13.48;72.38
74923;HTU21D;64715;44.760;37.678;2023-04-24T04:06:36;13.50;72.38
74923;HTU21D;64715;44.760;37.678;2023-04-24T04:07:38;13.50;72.09
74923;HTU21D;64715;44.760;37.678;2023-04-24T04:08:39;13.50;72.34
74923;HTU21D;64715;44.760;37.678;2023-04-24T04:09:40;13.50;71.91
74923;HTU21D;64715;44.760;37.678;2023-04-24T04:10:41;13.48;71.93
74923;HTU21D;64715;44.760;37.678;2023-04-24T04:11:41;13.49;72.05
74923;HTU21D;64715;44.760;37.678;2023-04-24T04:12:44;13.52;72.03
74923;HTU21D;64715;44.760;37.678;2023-04-24T04:13:45;13.53;71.88
74923;HTU21D;64715;44.760;37.678;2023-04-24T04:14:48;13.54;71.67
74923;HTU21D;64715;44.760;37.678;2023-04-24T04:15:50;13.56;71.55
74923;HTU21D;64715;44.760;37.678;2023-04-24T04:16:51;13.55;71.57
74923;HTU21D;64715;44.760;37.678;2023-04-24T04:17:52;13.59;71.67
74923;HTU21D;64715;44.760;37.678;2023-04-24T04:18:53;13.60;71.65
74923;HTU21D;64715;44.760;37.678;2023-04-24T04:19:54;13.64;71.74
74923;HTU21D;64715;44.760;37.678;2023-04-24T04:20:55;13.64;71.39
74923;HTU21D;64715;44.760;37.678;2023-04-24T04:21:57;13.67;71.45
74923;HTU21D;64715;44.760;37.678;2023-04-24T04:23:09;13.70;71.38
74923;HTU21D;64715;44.760;37.678;2023-04-24T04:24:23;13.73;71.44
74923;HTU21D;64715;44.760;37.678;2023-04-24T04:25:26;13.74;71.39
74923;HTU21D;64715;44.760;37.678;2023-04-24T04:26:27;13.81;71.57
74923;HTU21D;64715;44.760;37.678;2023-04-24T04:27:35;13.89;71.22
74923;HTU21D;64715;44.760;37.678;2023-04-24T04:28:42;13.95;71.15
74923;HTU21D;64715;44.760;37.678;2023-04-24T04:29:45;13.99;71.02
74923;HTU21D;64715;44.760;37.678;2023-04-24T04:30:49;14.01;71.00
74923;HTU21D;64715;44.760;37.678;2023-04-24T04:31:50;14.01;70.77
74923;HTU21D;64715;44.760;37.678;2023-04-24T04:32:51;14.05;70.85
74923;HTU21D;64715;44.760;37.678;2023-04-24T04:33:52;14.07;70.84
74923;HTU21D;64715;44.760;37.678;2023-04-24T04:34:54;14.08;70.88
74923;HTU21D;64715;44.760;37.678;2023-04-24T04:35:57;14.09;70.77
74923;HTU21D;64715;44.760;37.678;2023-04-24T04:37:00;14.12;70.86
74923;HTU21D;64715;44.760;37.678;2023-04-24T04:38:13;14.14;70.62
74923;HTU21D;64715;44.760;37.678;2023-04-24T04:39:22;14.17;70.76
74923;HTU21D;64715;44.760;37.678;2023-04-24T04:40:35;14.15;70.39
74923;HTU21D;64715;44.760;37.678;2023-04-24T04:41:39;14.11;70.50
74923;HTU21D;64715;44.760;37.678;2023-04-24T04:42:42;14.10;70.48
74923;HTU21D;64715;44.760;37.678;2023-04-24T04:43:44;14.07;70.03
74923;HTU21D;64715;44.760;37.678;2023-04-24T04:44:46;14.03;70.13
74923;HTU21D;64715;44.760;37.678;2023-04-24T04:45:52;14.00;70.05
74923;HTU21D;64715;44.760;37.678;2023-04-24T04:47:10;13.98;70.20
74923;HTU21D;64715;44.760;37.678;2023-04-24T04:48:12;13.97;70.33
74923;HTU21D;64715;44.760;37.678;2023-04-24T04:49:15;13.94;70.35
74923;HTU21D;64715;44.760;37.678;2023-04-24T04:50:17;13.94;70.61
74923;HTU21D;64715;44.760;37.678;2023-04-24T04:51:21;13.93;70.21
74923;HTU21D;64715;44.760;37.678;2023-04-24T04:52:22;13.91;70.25
74923;HTU21D;64715;44.760;37.678;2023-04-24T04:53:30;13.88;70.62
74923;HTU21D;64715;44.760;37.678;2023-04-24T04:54:31;13.82;70.42
74923;HTU21D;64715;44.760;37.678;2023-04-24T04:55:32;13.83;70.40
74923;HTU21D;64715;44.760;37.678;2023-04-24T04:56:44;13.81;70.74
74923;HTU21D;64715;44.760;37.678;2023-04-24T04:57:45;13.83;70.58
74923;HTU21D;64715;44.760;37.678;2023-04-24T04:58:47;13.82;70.32
74923;HTU21D;64715;44.760;37.678;2023-04-24T04:59:50;13.82;70.32
74923;HTU21D;64715;44.760;37.678;2023-04-24T05:01:01;13.82;70.69
74923;HTU21D;64715;44.760;37.678;2023-04-24T05:02:11;13.80;70.21
74923;HTU21D;64715;44.760;37.678;2023-04-24T05:03:12;13.78;70.54
74923;HTU21D;64715;44.760;37.678;2023-04-24T05:04:13;13.76;70.36
74923;HTU21D;64715;44.760;37.678;2023-04-24T05:05:15;13.75;70.38
74923;HTU21D;64715;44.760;37.678;2023-04-24T05:06:19;13.74;70.55
74923;HTU21D;64715;44.760;37.678;2023-04-24T05:07:21;13.74;70.45
74923;HTU21D;64715;44.760;37.678;2023-04-24T05:08:25;13.73;70.52
74923;HTU21D;64715;44.760;37.678;2023-04-24T05:09:26;13.74;70.42
74923;HTU21D;64715;44.760;37.678;2023-04-24T05:10:31;13.70;70.32
74923;HTU21D;64715;44.760;37.678;2023-04-24T05:11:33;13.69;70.27
74923;HTU21D;64715;44.760;37.678;2023-04-24T05:12:35;13.66;70.13
74923;HTU21D;64715;44.760;37.678;2023-04-24T05:13:37;13.64;70.42
74923;HTU21D;64715;44.760;37.678;2023-04-24T05:14:41;13.65;70.42
74923;HTU21D;64715;44.760;37.678;2023-04-24T05:15:43;13.61;70.52
74923;HTU21D;64715;44.760;37.678;2023-04-24T05:16:44;13.61;70.14
74923;HTU21D;64715;44.760;37.678;2023-04-24T05:17:46;13.59;70.26
74923;HTU21D;64715;44.760;37.678;2023-04-24T05:18:48;13.56;70.34
74923;HTU21D;64715;44.760;37.678;2023-04-24T05:19:52;13.56;70.34
74923;HTU21D;64715;44.760;37.678;2023-04-24T05:20:53;13.55;70.23
74923;HTU21D;64715;44.760;37.678;2023-04-24T05:21:55;13.55;70.48
74923;HTU21D;64715;44.760;37.678;2023-04-24T05:22:57;13.54;70.18
74923;HTU21D;64715;44.760;37.678;2023-04-24T05:23:59;13.56;70.19
74923;HTU21D;64715;44.760;37.678;2023-04-24T05:25:32;13.56;70.11
74923;HTU21D;64715;44.760;37.678;2023-04-24T05:26:41;13.54;70.22
74923;HTU21D;64715;44.760;37.678;2023-04-24T05:27:43;13.56;70.25
74923;HTU21D;64715;44.760;37.678;2023-04-24T05:28:49;13.53;70.14
74923;HTU21D;64715;44.760;37.678;2023-04-24T05:29:51;13.52;70.48
74923;HTU21D;64715;44.760;37.678;2023-04-24T05:30:52;13.53;70.42
74923;HTU21D;64715;44.760;37.678;2023-04-24T05:31:54;13.50;70.29
74923;HTU21D;64715;44.760;37.678;2023-04-24T05:32:56;13.49;70.45
74923;HTU21D;64715;44.760;37.678;2023-04-24T05:33:57;13.50;70.16
74923;HTU21D;64715;44.760;37.678;2023-04-24T05:34:58;13.51;70.49
74923;HTU21D;64715;44.760;37.678;2023-04-24T05:36:00;13.50;70.34
74923;HTU21D;64715;44.760;37.678;2023-04-24T05:37:01;13.50;70.48
74923;HTU21D;64715;44.760;37.678;2023-04-24T05:38:02;13.51;70.33
74923;HTU21D;64715;44.760;37.678;2023-04-24T05:39:04;13.53;70.67
74923;HTU21D;64715;44.760;37.678;2023-04-24T05:40:06;13.54;70.39
74923;HTU21D;64715;44.760;37.678;2023-04-24T05:41:07;13.60;70.61
74923;HTU21D;64715;44.760;37.678;2023-04-24T05:42:08;13.59;70.26
74923;HTU21D;64715;44.760;37.678;2023-04-24T05:43:09;13.58;70.44
74923;HTU21D;64715;44.760;37.678;2023-04-24T05:44:10;13.62;70.51
74923;HTU21D;64715;44.760;37.678;2023-04-24T05:45:11;13.64;70.46
74923;HTU21D;64715;44.760;37.678;2023-04-24T05:46:17;13.64;70.32
74923;HTU21D;64715;44.760;37.678;2023-04-24T05:47:17;13.67;70.43
74923;HTU21D;64715;44.760;37.678;2023-04-24T05:48:19;13.69;70.31
74923;HTU21D;64715;44.760;37.678;2023-04-24T05:49:20;13.69;70.32
74923;HTU21D;64715;44.760;37.678;2023-04-24T05:50:21;13.70;70.16
74923;HTU21D;64715;44.760;37.678;2023-04-24T05:51:22;13.74;70.12
74923;HTU21D;64715;44.760;37.678;2023-04-24T05:52:23;13.71;70.28
74923;HTU21D;64715;44.760;37.678;2023-04-24T05:53:24;13.74;70.13
74923;HTU21D;64715;44.760;37.678;2023-04-24T05:54:26;13.78;70.09
74923;HTU21D;64715;44.760;37.678;2023-04-24T05:55:27;13.77;70.04
74923;HTU21D;64715;44.760;37.678;2023-04-24T05:56:28;13.80;70.16
74923;HTU21D;64715;44.760;37.678;2023-04-24T05:57:30;13.81;70.14
74923;HTU21D;64715;44.760;37.678;2023-04-24T05:58:36;13.82;70.15
74923;HTU21D;64715;44.760;37.678;2023-04-24T05:59:40;13.84;70.02
74923;HTU21D;64715;44.760;37.678;2023-04-24T06:00:42;13.83;69.87
74923;HTU21D;64715;44.760;37.678;2023-04-24T06:01:43;13.83;70.07
74923;HTU21D;64715;44.760;37.678;2023-04-24T06:02:50;13.85;70.11
74923;HTU21D;64715;44.760;37.678;2023-04-24T06:03:53;13.82;69.97
74923;HTU21D;64715;44.760;37.678;2023-04-24T06:04:54;13.82;70.07
74923;HTU21D;64715;44.760;37.678;2023-04-24T06:05:55;13.82;69.91
74923;HTU21D;64715;44.760;37.678;2023-04-24T06:06:57;13.79;70.07
74923;HTU21D;64715;44.760;37.678;2023-04-24T06:08:00;13.78;70.09
74923;HTU21D;64715;44.760;37.678;2023-04-24T06:09:06;13.75;69.74
74923;HTU21D;64715;44.760;37.678;2023-04-24T06:10:08;13.71;70.02
74923;HTU21D;64715;44.760;37.678;2023-04-24T06:11:15;13.69;69.94
74923;HTU21D;64715;44.760;37.678;2023-04-24T06:12:16;13.66;70.15
74923;HTU21D;64715;44.760;37.678;2023-04-24T06:13:28;13.63;69.99
74923;HTU21D;64715;44.760;37.678;2023-04-24T06:14:51;13.63;70.33
74923;HTU21D;64715;44.760;37.678;2023-04-24T06:16:18;13.60;70.29
74923;HTU21D;64715;44.760;37.678;2023-04-24T06:17:25;13.58;70.06
74923;HTU21D;64715;44.760;37.678;2023-04-24T06:18:26;13.56;70.71
74923;HTU21D;64715;44.760;37.678;2023-04-24T06:19:27;13.55;70.55
74923;HTU21D;64715;44.760;37.678;2023-04-24T06:20:29;13.58;70.42
74923;HTU21D;64715;44.760;37.678;2023-04-24T06:21:30;13.58;70.23
74923;HTU21D;64715;44.760;37.678;2023-04-24T06:22:32;13.58;70.45
74923;HTU21D;64715;44.760;37.678;2023-04-24T06:23:33;13.53;70.36
74923;HTU21D;64715;44.760;37.678;2023-04-24T06:24:34;13.53;70.47